Time;durP1;ratioP1;P1;durP2;ratioP2;P2;SDS_P1;SDS_P2;PMS_P1;PMS_P2;Temp;Humidity;BMP_temperature;BMP_pressure;BME280_temperature;BME280_humidity;BME280_pressure;Samples;Min_cycle;Max_cycle;Signal;HPM_P1;HPM_P2
2023/10/31 00:01:51;;;;;;;6.60;4.50;;;;;;;7.68;93.19;97126.91;110151;1242;59681;-69
2023/10/31 00:04:21;;;;;;;6.40;4.10;;;;;;;7.73;93.90;97122.79;110181;1241;71799;-68
2023/10/31 00:06:53;;;;;;;5.40;4.20;;;;;;;7.77;93.75;97117.48;110106;1242;68519;-68
2023/10/31 00:09:26;;;;;;;5.20;4.00;;;;;;;7.82;93.47;97118.13;110157;1241;68546;-68
2023/10/31 00:12:00;;;;;;;5.50;3.80;;;;;;;7.87;96.16;97116.45;110146;1240;59685;-69
2023/10/31 00:14:34;;;;;;;6.40;3.60;;;;;;;7.89;93.39;97114.74;110160;1242;59679;-68
2023/10/31 00:17:06;;;;;;;4.40;3.40;;;;;;;7.90;93.59;97111.89;110152;1242;71300;-69
2023/10/31 00:19:40;;;;;;;5.70;3.80;;;;;;;7.89;93.92;97110.23;110179;1242;68223;-68
2023/10/31 00:22:11;;;;;;;4.80;3.90;;;;;;;7.85;93.83;97106.84;110157;1242;69362;-68
2023/10/31 00:24:41;;;;;;;5.20;3.40;;;;;;;7.81;93.78;97104.72;110123;1242;59759;-68
2023/10/31 00:27:15;;;;;;;5.20;2.90;;;;;;;7.76;93.72;97107.83;110139;1242;59627;-68
2023/10/31 00:29:48;;;;;;;5.20;3.10;;;;;;;7.72;93.85;97108.98;110181;1243;71427;-69
2023/10/31 00:32:21;;;;;;;4.90;3.20;;;;;;;7.67;94.22;97110.85;110151;1241;68578;-68
2023/10/31 00:34:53;;;;;;;5.20;3.60;;;;;;;7.61;96.94;97110.68;110133;1244;69259;-68
2023/10/31 00:37:24;;;;;;;4.80;3.20;;;;;;;7.52;96.16;97108.17;110099;1240;59713;-69
2023/10/31 00:39:57;;;;;;;5.30;3.40;;;;;;;7.45;95.92;97104.13;110177;1243;59628;-70
2023/10/31 00:42:28;;;;;;;4.10;3.00;;;;;;;7.39;91.43;97108.16;110303;1240;71249;-68
2023/10/31 00:45:01;;;;;;;4.90;3.10;;;;;;;7.34;90.52;97104.13;110180;1244;69608;-69
2023/10/31 00:47:32;;;;;;;4.80;3.30;;;;;;;7.32;95.33;97100.46;110135;1242;69240;-69
2023/10/31 00:50:02;;;;;;;5.90;3.00;;;;;;;7.26;97.24;97103.06;110130;1242;59705;-69
2023/10/31 00:52:38;;;;;;;4.10;2.80;;;;;;;7.21;94.62;97099.26;110132;1243;59755;-68
2023/10/31 00:55:08;;;;;;;4.90;3.20;;;;;;;7.16;96.96;97098.18;110151;1242;70217;-68
2023/10/31 00:57:41;;;;;;;4.40;2.70;;;;;;;7.11;100.00;97096.95;110131;1242;69112;-68
2023/10/31 01:00:22;;;;;;;5.70;3.30;;;;;;;7.05;99.02;97095.94;110160;1241;69359;-70
2023/10/31 01:02:53;;;;;;;3.90;2.90;;;;;;;7.00;95.68;97093.14;110198;1242;59625;-70
2023/10/31 01:05:26;;;;;;;5.30;3.20;;;;;;;6.96;95.88;97090.46;110189;1242;59695;-69
2023/10/31 01:07:57;;;;;;;5.50;3.20;;;;;;;6.94;98.07;97085.77;110190;1243;70670;-69
2023/10/31 01:10:30;;;;;;;5.00;2.80;;;;;;;6.92;99.71;97084.47;110315;1240;69255;-70
2023/10/31 01:13:02;;;;;;;4.30;3.10;;;;;;;6.90;99.19;97085.13;110243;1241;69294;-69
2023/10/31 01:15:43;;;;;;;4.80;3.00;;;;;;;6.86;97.55;97080.19;110116;1240;59661;-70
2023/10/31 01:18:14;;;;;;;4.90;2.90;;;;;;;6.81;95.86;97080.68;110284;1243;59666;-69
2023/10/31 01:20:48;;;;;;;4.50;2.60;;;;;;;6.77;95.66;97081.29;110315;1242;71401;-68
2023/10/31 01:23:23;;;;;;;4.10;2.80;;;;;;;6.74;94.84;97082.10;110177;1242;69304;-69
2023/10/31 01:25:57;;;;;;;5.00;3.10;;;;;;;6.72;94.78;97083.30;110154;1242;68636;-69
2023/10/31 01:28:30;;;;;;;4.80;3.20;;;;;;;6.69;95.81;97086.45;110159;1242;60072;-68
2023/10/31 01:31:01;;;;;;;5.60;3.10;;;;;;;6.66;97.76;97081.27;110173;1242;59671;-68
2023/10/31 01:33:39;;;;;;;4.90;2.60;;;;;;;6.60;97.09;97080.58;110129;1240;72464;-68
2023/10/31 01:36:12;;;;;;;4.90;3.80;;;;;;;6.54;94.97;97077.85;110173;1244;68377;-68
2023/10/31 01:38:46;;;;;;;5.50;3.70;;;;;;;6.48;96.85;97077.14;110233;1241;69371;-70
2023/10/31 01:41:19;;;;;;;5.00;3.40;;;;;;;6.43;100.00;97078.16;110151;1244;59672;-69
2023/10/31 01:43:53;;;;;;;4.80;3.20;;;;;;;6.37;100.00;97072.83;110194;1241;59683;-69
2023/10/31 01:46:24;;;;;;;5.30;3.40;;;;;;;6.30;100.00;97074.81;110164;1240;69651;-68
2023/10/31 01:48:55;;;;;;;5.10;3.00;;;;;;;6.22;100.00;97067.85;110163;1242;69402;-68
2023/10/31 01:51:28;;;;;;;5.20;2.90;;;;;;;6.16;99.62;97061.50;110149;1242;69613;-68
2023/10/31 01:53:59;;;;;;;5.50;3.00;;;;;;;6.11;97.71;97065.05;110182;1242;59737;-68
2023/10/31 01:56:32;;;;;;;4.00;2.60;;;;;;;6.08;97.21;97059.67;110161;1242;59655;-68
2023/10/31 01:59:02;;;;;;;3.20;2.50;;;;;;;6.06;93.99;97061.23;110098;1240;71408;-68
2023/10/31 02:01:39;;;;;;;4.60;2.90;;;;;;;6.06;92.48;97064.82;110148;1241;68712;-68
2023/10/31 02:04:12;;;;;;;5.40;3.50;;;;;;;6.08;97.33;97060.88;110137;1242;69379;-67
2023/10/31 02:06:45;;;;;;;8.40;4.40;;;;;;;6.08;99.75;97060.41;110128;1240;59665;-68
2023/10/31 02:09:17;;;;;;;5.30;3.20;;;;;;;6.05;100.00;97057.29;110141;1241;59702;-68
2023/10/31 02:11:48;;;;;;;5.20;3.50;;;;;;;6.01;100.00;97058.38;110190;1242;71448;-69
2023/10/31 02:14:26;;;;;;;5.60;3.60;;;;;;;5.97;100.00;97060.57;110162;1243;68489;-67
2023/10/31 02:16:57;;;;;;;4.70;4.00;;;;;;;5.92;100.00;97058.92;110272;1242;69141;-70
2023/10/31 02:19:28;;;;;;;6.40;4.10;;;;;;;5.88;100.00;97053.27;110245;1244;59681;-68
2023/10/31 02:22:00;;;;;;;6.00;3.80;;;;;;;5.84;100.00;97050.91;110174;1242;59696;-68
2023/10/31 02:24:31;;;;;;;5.50;3.40;;;;;;;5.80;100.00;97048.73;110113;1240;71463;-69
2023/10/31 02:27:03;;;;;;;6.70;4.00;;;;;;;5.75;100.00;97046.75;110138;1241;68619;-69
2023/10/31 02:29:35;;;;;;;5.60;3.50;;;;;;;5.72;100.00;97045.90;110152;1241;69340;-69
2023/10/31 02:32:09;;;;;;;5.30;3.00;;;;;;;5.68;100.00;97044.09;110147;1242;59637;-69
2023/10/31 02:34:41;;;;;;;5.10;2.80;;;;;;;5.64;100.00;97042.91;110158;1242;59741;-68
2023/10/31 02:37:13;;;;;;;3.50;3.00;;;;;;;5.62;100.00;97045.64;110139;1242;70724;-69
2023/10/31 02:39:43;;;;;;;;;;;;;;;5.59;100.00;97044.09;110190;1243;69140;-69
2023/10/31 02:42:13;;;;;;;6.40;3.30;;;;;;;5.55;100.00;97039.63;110164;1240;68519;-69
2023/10/31 02:44:44;;;;;;;5.00;3.20;;;;;;;5.54;97.88;97037.45;110106;1242;59761;-69
2023/10/31 02:47:17;;;;;;;4.40;3.00;;;;;;;5.55;100.00;97039.13;110195;1240;59759;-69
2023/10/31 02:49:49;;;;;;;5.50;3.80;;;;;;;5.54;98.87;97034.51;110168;1241;70811;-69
2023/10/31 02:52:20;;;;;;;6.10;4.00;;;;;;;5.53;95.67;97030.09;110150;1244;68455;-68
2023/10/31 02:54:52;;;;;;;5.70;3.70;;;;;;;5.55;97.89;97031.34;110178;1249;69322;-68
2023/10/31 02:57:23;;;;;;;5.00;3.70;;;;;;;5.55;100.00;97032.57;110111;1242;59709;-70
2023/10/31 02:59:57;;;;;;;5.30;3.70;;;;;;;5.51;100.00;97036.09;110143;1242;59696;-68
2023/10/31 03:02:30;;;;;;;6.20;3.80;;;;;;;5.47;100.00;97036.34;110148;1241;70671;-68
2023/10/31 03:05:03;;;;;;;5.50;4.50;;;;;;;5.42;100.00;97038.02;110182;1242;68277;-68
2023/10/31 03:07:35;;;;;;;6.80;4.30;;;;;;;5.34;100.00;97035.16;110149;1241;68911;-69
2023/10/31 03:10:06;;;;;;;3.80;3.00;;;;;;;5.27;100.00;97031.75;110262;1240;59714;-69
2023/10/31 03:12:37;;;;;;;5.90;3.70;;;;;;;5.21;100.00;97024.84;110298;1242;59689;-69
2023/10/31 03:15:09;;;;;;;4.80;2.70;;;;;;;5.16;100.00;97021.38;110282;1242;71388;-69
2023/10/31 03:17:39;;;;;;;4.00;3.10;;;;;;;5.11;100.00;97016.08;110145;1241;69845;-69
2023/10/31 03:20:17;;;;;;;5.30;3.70;;;;;;;5.07;100.00;97013.72;110163;1240;70111;-70
2023/10/31 03:22:48;;;;;;;5.20;4.00;;;;;;;5.04;100.00;97013.75;110180;1241;59742;-70
2023/10/31 03:25:23;;;;;;;6.40;4.30;;;;;;;5.02;100.00;97012.82;110217;1244;59715;-70
2023/10/31 03:27:55;;;;;;;5.50;3.30;;;;;;;5.02;100.00;97010.92;110299;1240;69525;-70
2023/10/31 03:30:30;;;;;;;5.20;3.60;;;;;;;4.99;100.00;97006.06;110328;1240;68464;-70
2023/10/31 03:33:02;;;;;;;4.60;3.60;;;;;;;4.99;100.00;97000.91;110215;1244;68588;-70
2023/10/31 03:35:34;;;;;;;4.10;2.90;;;;;;;4.99;100.00;97000.53;110185;1240;59751;-69
2023/10/31 03:38:06;;;;;;;5.20;4.10;;;;;;;5.00;100.00;96999.09;110400;1241;59727;-69
2023/10/31 03:40:41;;;;;;;5.30;3.80;;;;;;;5.04;100.00;96990.09;110187;1244;71880;-69
2023/10/31 03:43:14;;;;;;;6.80;4.10;;;;;;;5.06;100.00;96988.40;110171;1241;69333;-70
2023/10/31 03:45:47;;;;;;;5.10;3.50;;;;;;;5.07;100.00;96989.39;110141;1244;69719;-69
2023/10/31 03:48:23;;;;;;;5.20;3.30;;;;;;;5.11;99.57;96987.08;110150;1243;59818;-69
2023/10/31 03:50:56;;;;;;;8.80;5.30;;;;;;;5.18;99.52;96980.82;110136;1240;59706;-68
2023/10/31 03:53:29;;;;;;;9.60;4.60;;;;;;;5.26;99.66;96973.78;110130;1246;71426;-69
2023/10/31 03:56:00;;;;;;;6.80;4.70;;;;;;;5.28;99.59;96976.23;110148;1240;68470;-68
2023/10/31 03:58:36;;;;;;;6.20;3.70;;;;;;;5.29;99.77;96976.04;110154;1242;70020;-69
2023/10/31 04:01:06;;;;;;;6.00;3.80;;;;;;;5.29;100.00;96972.19;110143;1243;59745;-69
2023/10/31 04:03:37;;;;;;;4.40;3.20;;;;;;;5.29;99.87;96970.31;110165;1240;59757;-69
2023/10/31 04:06:10;;;;;;;4.80;3.40;;;;;;;5.28;99.74;96967.79;110166;1242;71386;-69
2023/10/31 04:08:44;;;;;;;5.80;4.60;;;;;;;5.26;97.96;96965.81;110153;1244;69239;-69
2023/10/31 04:11:15;;;;;;;7.00;4.40;;;;;;;5.27;99.00;96959.05;110136;1242;69904;-69
2023/10/31 04:13:45;;;;;;;6.20;4.20;;;;;;;5.28;100.00;96958.27;110153;1242;59688;-69
2023/10/31 04:16:17;;;;;;;5.90;4.40;;;;;;;5.21;100.00;96957.33;110205;1244;59596;-69
2023/10/31 04:18:48;;;;;;;5.60;4.20;;;;;;;5.01;100.00;96961.59;110157;1240;71242;-69
2023/10/31 04:21:19;;;;;;;7.70;4.70;;;;;;;4.92;100.00;96960.39;110141;1244;69259;-69
2023/10/31 04:23:49;;;;;;;6.70;4.10;;;;;;;4.81;100.00;96964.64;110118;1243;69285;-69
2023/10/31 04:26:20;;;;;;;6.00;4.00;;;;;;;4.73;100.00;96970.80;110106;1244;59630;-68
2023/10/31 04:28:52;;;;;;;4.90;3.70;;;;;;;4.67;100.00;96970.77;110175;1242;59687;-69
2023/10/31 04:31:24;;;;;;;5.00;3.60;;;;;;;4.62;100.00;96968.98;110130;1242;71032;-70
2023/10/31 04:34:09;;;;;;;6.10;3.80;;;;;;;4.56;100.00;96963.95;110258;1242;69562;-70
2023/10/31 04:36:39;;;;;;;5.20;3.80;;;;;;;4.55;100.00;96964.19;110221;1242;68735;-70
2023/10/31 04:39:09;;;;;;;4.20;3.10;;;;;;;4.61;100.00;96971.62;110292;1247;59751;-69
2023/10/31 04:41:39;;;;;;;5.70;3.30;;;;;;;4.66;100.00;96979.98;110150;1242;60114;-68
2023/10/31 04:44:09;;;;;;;6.20;3.90;;;;;;;4.65;100.00;96978.28;110145;1242;71276;-68
2023/10/31 04:46:39;;;;;;;;;;;;;;;4.65;100.00;96971.42;110173;1240;68759;-69
2023/10/31 04:49:16;;;;;;;8.00;4.70;;;;;;;4.64;100.00;96974.38;110164;1242;68216;-69
2023/10/31 04:51:46;;;;;;;5.40;4.10;;;;;;;4.59;100.00;96976.54;110126;1245;59744;-69
2023/10/31 04:54:18;;;;;;;5.00;3.30;;;;;;;4.57;100.00;96980.30;110199;1240;59705;-69
2023/10/31 04:56:51;;;;;;;6.20;4.30;;;;;;;4.54;100.00;96978.92;110163;1240;71817;-68
2023/10/31 04:59:23;;;;;;;7.10;4.50;;;;;;;4.56;100.00;96981.55;110224;1243;69099;-70
2023/10/31 05:01:54;;;;;;;11.20;7.50;;;;;;;4.58;100.00;96972.47;110326;1241;69702;-70
2023/10/31 05:04:23;;;;;;;10.10;5.80;;;;;;;4.58;100.00;96980.05;110319;1244;59761;-70
2023/10/31 05:06:53;;;;;;;9.90;6.20;;;;;;;4.56;100.00;96978.41;110412;1242;59654;-69
2023/10/31 05:09:23;;;;;;;;;;;;;;;4.56;100.00;96981.03;110332;1240;71980;-68
2023/10/31 05:11:54;;;;;;;6.20;4.70;;;;;;;4.55;100.00;96982.66;110432;1240;69031;-68
2023/10/31 05:14:23;;;;;;;6.00;4.20;;;;;;;4.56;100.00;96985.48;110249;1240;68544;-69
2023/10/31 05:16:52;;;;;;;8.10;5.30;;;;;;;4.60;100.00;96992.73;110228;1240;59745;-69
2023/10/31 05:19:22;;;;;;;8.00;5.20;;;;;;;4.62;100.00;96993.83;110258;1240;59706;-70
2023/10/31 05:21:52;;;;;;;7.60;5.80;;;;;;;4.65;100.00;96990.06;110207;1243;71803;-70
2023/10/31 05:24:21;;;;;;;;;;;;;;;4.70;100.00;96986.49;110328;1242;69406;-70
2023/10/31 05:26:50;;;;;;;7.00;4.60;;;;;;;4.73;100.00;96985.45;110244;1242;67534;-70
2023/10/31 05:29:20;;;;;;;6.50;4.50;;;;;;;4.78;100.00;96982.77;110235;1240;59753;-71
2023/10/31 05:31:49;;;;;;;6.80;4.40;;;;;;;4.82;100.00;96987.20;110266;1240;59636;-70
2023/10/31 05:34:18;;;;;;;6.50;4.30;;;;;;;4.84;100.00;96986.02;110276;1240;71371;-70
2023/10/31 05:36:48;;;;;;;6.20;4.20;;;;;;;4.86;100.00;96985.23;110246;1240;69240;-70
2023/10/31 05:39:18;;;;;;;5.50;3.90;;;;;;;4.88;100.00;96991.67;110241;1240;69501;-70
2023/10/31 05:41:47;;;;;;;5.70;4.20;;;;;;;4.93;100.00;96993.13;110230;1242;59747;-70
2023/10/31 05:44:17;;;;;;;5.10;3.90;;;;;;;5.02;100.00;97000.58;110264;1243;59705;-70
2023/10/31 05:46:47;;;;;;;4.10;3.20;;;;;;;5.10;100.00;97001.66;110271;1242;71375;-71
2023/10/31 05:49:16;;;;;;;4.30;3.50;;;;;;;5.20;100.00;97002.67;110301;1242;68271;-69
2023/10/31 05:51:49;;;;;;;5.20;4.20;;;;;;;5.30;100.00;97004.30;110244;1242;69843;-69
2023/10/31 05:54:19;;;;;;;7.20;5.40;;;;;;;5.41;100.00;96999.33;110285;1242;59679;-70
2023/10/31 05:56:49;;;;;;;6.90;5.30;;;;;;;5.51;100.00;97000.30;110263;1241;59737;-70
2023/10/31 05:59:17;;;;;;;6.50;5.10;;;;;;;5.60;100.00;96995.44;110271;1243;70991;-69
2023/10/31 06:01:50;;;;;;;7.70;5.10;;;;;;;5.70;100.00;96994.70;110137;1240;69798;-69
2023/10/31 06:04:20;;;;;;;8.50;6.60;;;;;;;5.79;100.00;96991.54;110167;1243;68552;-70
2023/10/31 06:06:49;;;;;;;7.00;5.80;;;;;;;5.89;100.00;96992.51;110312;1240;59747;-70
2023/10/31 06:09:19;;;;;;;9.00;5.60;;;;;;;5.99;100.00;96994.87;110282;1240;59675;-70
2023/10/31 06:11:48;;;;;;;7.90;5.20;;;;;;;6.10;100.00;96992.79;110276;1242;71295;-70
2023/10/31 06:14:18;;;;;;;;;;;;;;;6.24;100.00;96989.16;110313;1240;69237;-70
2023/10/31 06:16:47;;;;;;;9.80;7.20;;;;;;;6.44;100.00;96996.03;110263;1240;69292;-71
2023/10/31 06:19:21;;;;;;;10.20;6.10;;;;;;;6.72;100.00;97001.04;110260;1243;59757;-70
2023/10/31 06:21:49;;;;;;;9.20;6.40;;;;;;;7.14;100.00;97000.89;110258;1242;59625;-70
2023/10/31 06:24:18;;;;;;;7.50;5.50;;;;;;;7.59;100.00;96993.77;110303;1240;71307;-71
2023/10/31 06:26:47;;;;;;;9.00;5.50;;;;;;;8.05;100.00;96985.23;110246;1244;68490;-71
2023/10/31 06:29:16;;;;;;;5.70;4.40;;;;;;;8.63;100.00;96973.05;110248;1242;69295;-71
2023/10/31 06:32:06;;;;;;;5.50;4.20;;;;;;;9.39;100.00;96972.51;110258;1241;59740;-71
2023/10/31 06:34:35;;;;;;;8.00;5.10;;;;;;;10.07;100.00;96964.50;110269;1242;59630;-71
2023/10/31 06:37:04;;;;;;;8.30;5.90;;;;;;;10.79;100.00;96960.06;110258;1242;70872;-71
2023/10/31 06:39:34;;;;;;;8.10;6.60;;;;;;;11.50;92.47;96949.12;110212;1242;69299;-71
2023/10/31 06:42:03;;;;;;;9.10;6.50;;;;;;;12.13;83.71;96944.16;110271;1242;69308;-71
2023/10/31 06:44:32;;;;;;;8.40;6.50;;;;;;;12.64;78.45;96935.36;110218;1242;59741;-71
2023/10/31 06:47:04;;;;;;;7.10;5.30;;;;;;;13.23;77.57;96934.39;110261;1243;59682;-72
2023/10/31 06:49:33;;;;;;;7.20;5.30;;;;;;;13.81;72.68;96930.48;110213;1240;70645;-72
2023/10/31 06:52:04;;;;;;;7.30;5.10;;;;;;;14.32;68.93;96927.05;110273;1242;69212;-70
2023/10/31 06:54:36;;;;;;;11.20;8.90;;;;;;;14.60;67.91;96924.34;110262;1240;68472;-71
2023/10/31 06:57:05;;;;;;;12.50;11.10;;;;;;;14.91;64.66;96921.90;110260;1242;59684;-71
2023/10/31 06:59:35;;;;;;;13.80;12.30;;;;;;;15.20;64.44;96916.73;110241;1242;59688;-71
2023/10/31 07:02:04;;;;;;;12.40;11.10;;;;;;;15.58;62.82;96906.25;110264;1241;71980;-70
2023/10/31 07:04:33;;;;;;;11.50;9.90;;;;;;;16.12;63.04;96899.54;110255;1240;69096;-71
2023/10/31 07:07:03;;;;;;;11.70;9.60;;;;;;;16.97;77.18;96893.21;110228;1242;69309;-71
2023/10/31 07:09:32;;;;;;;;;;;;;;;17.78;76.41;96887.15;110243;1240;59758;-72
2023/10/31 07:12:00;;;;;;;13.20;9.70;;;;;;;18.07;56.33;96877.06;110287;1240;59715;-72
2023/10/31 07:14:29;;;;;;;11.40;9.00;;;;;;;18.37;54.48;96883.55;110275;1242;71382;-72
2023/10/31 07:16:58;;;;;;;10.70;8.90;;;;;;;18.54;53.99;96880.01;110209;1240;68357;-72
2023/10/31 07:19:27;;;;;;;9.10;7.90;;;;;;;18.98;54.26;96881.14;110217;1242;69267;-72
2023/10/31 07:21:56;;;;;;;9.10;8.10;;;;;;;19.29;52.07;96874.86;110257;1242;59808;-71
2023/10/31 07:24:28;;;;;;;9.90;7.80;;;;;;;19.48;49.53;96867.26;110216;1243;59653;-71
2023/10/31 07:26:56;;;;;;;8.10;6.40;;;;;;;19.95;47.10;96862.04;110303;1242;71337;-73
2023/10/31 07:29:25;;;;;;;9.50;7.90;;;;;;;20.23;46.28;96862.09;110278;1240;70077;-71
2023/10/31 07:31:57;;;;;;;10.90;9.00;;;;;;;20.03;48.95;96863.30;110256;1242;69407;-71
2023/10/31 07:34:29;;;;;;;10.20;8.70;;;;;;;20.41;47.91;96856.41;110250;1240;59696;-71
2023/10/31 07:36:59;;;;;;;7.80;6.60;;;;;;;21.00;46.97;96852.60;110238;1242;59708;-71
2023/10/31 07:39:28;;;;;;;7.10;5.10;;;;;;;21.80;42.52;96847.88;110244;1242;70999;-72
2023/10/31 07:42:00;;;;;;;5.40;4.20;;;;;;;22.53;43.62;96858.51;110248;1241;68573;-72
2023/10/31 07:44:30;;;;;;;4.20;3.70;;;;;;;23.07;38.97;96860.98;110232;1241;68291;-73
2023/10/31 07:47:02;;;;;;;4.30;3.20;;;;;;;23.61;36.22;96851.24;110233;1240;59676;-73
2023/10/31 07:49:31;;;;;;;5.40;3.80;;;;;;;24.00;34.68;96853.77;110266;1242;59654;-73
2023/10/31 07:52:03;;;;;;;4.60;3.00;;;;;;;24.19;36.28;96857.98;110256;1242;70494;-73
2023/10/31 07:54:35;;;;;;;3.40;3.00;;;;;;;24.90;38.61;96863.92;110253;1240;69038;-73
2023/10/31 07:57:04;;;;;;;3.80;2.20;;;;;;;25.42;38.04;96869.21;110261;1240;68808;-73
2023/10/31 07:59:34;;;;;;;3.50;2.10;;;;;;;25.67;33.58;96859.61;110305;1243;59718;-72
2023/10/31 08:02:06;;;;;;;3.50;1.80;;;;;;;25.89;31.67;96854.14;110325;1241;59663;-72
2023/10/31 08:04:35;;;;;;;2.00;1.40;;;;;;;25.67;29.82;96857.57;110259;1242;71359;-71
2023/10/31 08:07:04;;;;;;;1.90;1.10;;;;;;;25.47;28.38;96854.96;110259;1240;69143;-71
2023/10/31 08:09:33;;;;;;;3.50;1.60;;;;;;;25.34;28.31;96868.58;110245;1243;68522;-72
2023/10/31 08:12:02;;;;;;;2.30;1.00;;;;;;;25.32;28.50;96871.64;110261;1240;60082;-72
2023/10/31 08:14:32;;;;;;;2.40;1.30;;;;;;;25.81;29.20;96869.20;110264;1241;59661;-72
2023/10/31 08:17:00;;;;;;;3.00;1.20;;;;;;;26.04;28.93;96869.31;110263;1242;71391;-71
2023/10/31 08:19:29;;;;;;;1.80;1.00;;;;;;;26.69;28.42;96865.25;110268;1240;69315;-71
2023/10/31 08:21:59;;;;;;;1.90;1.10;;;;;;;27.35;28.74;96865.36;110217;1244;69720;-71
2023/10/31 08:24:28;;;;;;;2.70;1.40;;;;;;;27.90;28.90;96860.42;110272;1240;59742;-72
2023/10/31 08:27:01;;;;;;;3.70;1.20;;;;;;;28.16;26.90;96846.30;110282;1241;59633;-70
2023/10/31 08:29:30;;;;;;;2.70;1.20;;;;;;;28.43;27.00;96842.19;110253;1242;71430;-71
2023/10/31 08:31:58;;;;;;;;;;;;;;;28.45;25.43;96842.59;110297;1240;69548;-72
2023/10/31 08:34:30;;;;;;;1.70;1.00;;;;;;;28.19;23.97;96835.13;110262;1240;67524;-71
2023/10/31 08:37:00;;;;;;;1.90;1.10;;;;;;;27.91;23.87;96829.09;110250;1240;59661;-70
2023/10/31 08:39:29;;;;;;;2.70;1.40;;;;;;;27.82;23.95;96826.59;110333;1243;59670;-70
2023/10/31 08:41:59;;;;;;;2.10;1.20;;;;;;;27.53;23.95;96830.53;110138;1240;71974;-71
2023/10/31 08:44:31;;;;;;;3.50;1.60;;;;;;;27.64;24.50;96820.31;110278;1241;68796;-72
2023/10/31 08:47:03;;;;;;;2.60;1.10;;;;;;;27.74;24.79;96802.92;110256;1244;69803;-72
2023/10/31 08:49:32;;;;;;;2.90;1.30;;;;;;;27.85;24.27;96794.80;110243;1243;59743;-71
2023/10/31 08:52:02;;;;;;;2.50;1.40;;;;;;;27.55;23.29;96784.71;110246;1240;59706;-70
2023/10/31 08:54:31;;;;;;;2.00;1.40;;;;;;;27.53;24.12;96786.67;110235;1240;71423;-71
2023/10/31 08:57:00;;;;;;;1.90;1.40;;;;;;;27.44;23.62;96794.40;110285;1243;69178;-73
2023/10/31 08:59:29;;;;;;;2.20;1.60;;;;;;;27.49;23.64;96787.12;110205;1244;69249;-72
2023/10/31 09:01:58;;;;;;;3.10;1.20;;;;;;;27.43;24.01;96777.42;110232;1240;59673;-68
2023/10/31 09:04:29;;;;;;;2.40;1.40;;;;;;;27.50;23.56;96770.77;110153;1240;59758;-71
2023/10/31 09:06:58;;;;;;;2.30;1.20;;;;;;;27.87;24.46;96774.50;110245;1243;71367;-69
2023/10/31 09:09:30;;;;;;;3.10;1.80;;;;;;;28.28;23.78;96777.80;110150;1242;69834;-70
2023/10/31 09:11:59;;;;;;;3.30;1.70;;;;;;;28.43;23.80;96776.86;110153;1243;69687;-70
2023/10/31 09:14:28;;;;;;;;;;;;;;;28.53;23.49;96774.58;110299;1241;59799;-70
2023/10/31 09:16:57;;;;;;;3.70;1.60;;;;;;;28.60;23.82;96766.65;110269;1240;59828;-68
2023/10/31 09:19:28;;;;;;;1.90;1.20;;;;;;;28.97;23.43;96764.87;109803;1240;471742;-69
2023/10/31 09:21:58;;;;;;;2.40;1.80;;;;;;;29.04;22.37;96769.30;110132;1248;69619;-70
2023/10/31 09:24:28;;;;;;;2.60;1.40;;;;;;;29.29;22.41;96774.86;110226;1241;69230;-69
2023/10/31 09:26:59;;;;;;;2.30;1.40;;;;;;;29.29;22.31;96772.70;110164;1240;59673;-71
2023/10/31 09:29:29;;;;;;;3.10;1.80;;;;;;;29.65;22.98;96769.42;110281;1240;59651;-69
2023/10/31 09:31:59;;;;;;;2.80;1.80;;;;;;;29.90;22.32;96768.97;110144;1240;70715;-70
2023/10/31 09:34:29;;;;;;;2.40;1.90;;;;;;;29.93;21.46;96766.35;110281;1243;69641;-69
2023/10/31 09:36:58;;;;;;;4.10;2.00;;;;;;;30.02;21.10;96756.14;110256;1240;69349;-70
2023/10/31 09:39:30;;;;;;;2.30;1.70;;;;;;;30.06;20.75;96758.08;110273;1240;60182;-68
2023/10/31 09:41:59;;;;;;;3.20;1.90;;;;;;;30.20;20.54;96756.90;110147;1241;59679;-71
2023/10/31 09:44:28;;;;;;;2.60;1.50;;;;;;;29.95;20.65;96747.42;110248;1240;70887;-69
2023/10/31 09:46:58;;;;;;;2.90;1.70;;;;;;;30.08;20.65;96740.31;110284;1242;69834;-68
2023/10/31 09:49:29;;;;;;;3.10;1.60;;;;;;;30.24;20.73;96734.96;110156;1240;69311;-70
2023/10/31 09:52:03;;;;;;;3.70;1.60;;;;;;;30.11;20.40;96732.23;110210;1242;60209;-68
2023/10/31 09:54:37;;;;;;;2.00;1.30;;;;;;;30.13;20.85;96717.80;110204;1240;59722;-68
2023/10/31 09:57:12;;;;;;;2.60;1.30;;;;;;;30.19;20.58;96718.36;110080;1240;71293;-71
2023/10/31 09:59:44;;;;;;;2.20;1.40;;;;;;;30.09;20.62;96712.30;110287;1242;69236;-69
2023/10/31 10:02:25;;;;;;;2.30;1.40;;;;;;;30.21;20.71;96716.64;110140;1247;69685;-70
2023/10/31 10:04:55;;;;;;;3.70;1.90;;;;;;;30.41;20.38;96717.18;110180;1242;59699;-68
2023/10/31 10:07:26;;;;;;;3.10;1.50;;;;;;;30.55;20.23;96718.61;110152;1240;59688;-70
2023/10/31 10:09:56;;;;;;;2.10;1.40;;;;;;;30.57;20.14;96709.09;110148;1241;71373;-69
2023/10/31 10:12:27;;;;;;;3.20;1.60;;;;;;;30.90;20.33;96705.08;110207;1240;68558;-69
2023/10/31 10:14:58;;;;;;;2.70;1.50;;;;;;;30.76;19.82;96705.16;110192;1241;69399;-68
2023/10/31 10:17:28;;;;;;;2.80;1.70;;;;;;;30.76;20.21;96698.75;110201;1240;60086;-69
2023/10/31 10:20:10;;;;;;;2.80;1.70;;;;;;;30.49;20.20;96693.48;110191;1240;59686;-69
2023/10/31 10:22:42;;;;;;;3.30;1.40;;;;;;;30.43;20.04;96689.00;110214;1240;71594;-69
2023/10/31 10:25:19;;;;;;;2.30;1.50;;;;;;;30.38;20.39;96689.01;110279;1243;68745;-70
2023/10/31 10:27:48;;;;;;;3.20;2.10;;;;;;;30.40;20.45;96693.08;110253;1240;69841;-69
2023/10/31 10:30:17;;;;;;;3.60;2.50;;;;;;;30.39;20.14;96694.09;110258;1242;59731;-70
2023/10/31 10:32:51;;;;;;;3.70;2.80;;;;;;;30.46;20.11;96689.84;110193;1242;59663;-70
2023/10/31 10:35:26;;;;;;;5.00;3.50;;;;;;;30.46;19.88;96678.20;110119;1244;71299;-71
2023/10/31 10:37:58;;;;;;;3.80;2.70;;;;;;;30.35;20.32;96676.41;110337;1244;69817;-69
2023/10/31 10:40:29;;;;;;;3.30;2.60;;;;;;;30.32;20.04;96667.18;110216;1242;69565;-70
2023/10/31 10:43:00;;;;;;;3.70;2.50;;;;;;;30.41;19.88;96664.35;110335;1243;59780;-70
2023/10/31 10:45:32;;;;;;;3.70;2.70;;;;;;;30.64;20.21;96657.76;110308;1243;59685;-72
2023/10/31 10:48:09;;;;;;;3.80;3.00;;;;;;;30.75;19.74;96648.73;110193;1240;71038;-70
2023/10/31 10:50:45;;;;;;;3.80;2.80;;;;;;;30.97;19.87;96634.55;110176;1243;69835;-70
2023/10/31 10:53:26;;;;;;;4.10;3.00;;;;;;;31.34;19.75;96633.31;110322;1244;69242;-71
2023/10/31 10:56:16;;;;;;;3.30;2.30;;;;;;;31.56;19.61;96631.53;110241;1242;59708;-70
2023/10/31 10:58:55;;;;;;;3.60;2.20;;;;;;;31.72;19.50;96631.70;110344;1242;59677;-70
2023/10/31 11:01:25;;;;;;;3.00;2.00;;;;;;;32.02;19.78;96629.91;110169;1244;70382;-69
2023/10/31 11:03:55;;;;;;;2.80;1.90;;;;;;;32.52;19.43;96623.88;110358;1241;69673;-72
2023/10/31 11:06:26;;;;;;;3.60;2.10;;;;;;;33.00;18.56;96615.27;110180;1242;69774;-70
2023/10/31 11:08:55;;;;;;;2.50;1.60;;;;;;;32.85;18.17;96602.44;110256;1243;59719;-71
2023/10/31 11:11:25;;;;;;;4.30;2.20;;;;;;;32.45;17.99;96596.02;110219;1240;59774;-70
2023/10/31 11:13:56;;;;;;;3.70;2.20;;;;;;;32.02;18.35;96598.45;110244;1242;71252;-69
2023/10/31 11:16:44;;;;;;;2.70;1.60;;;;;;;31.85;18.48;96599.27;110211;1242;69172;-69
2023/10/31 11:19:14;;;;;;;3.60;1.80;;;;;;;31.72;18.72;96595.08;110186;1242;69290;-70
2023/10/31 11:22:02;;;;;;;2.50;1.50;;;;;;;31.76;18.98;96591.84;110239;1243;59733;-70
2023/10/31 11:24:32;;;;;;;2.90;1.50;;;;;;;32.06;18.64;96585.01;110270;1243;59682;-70
2023/10/31 11:27:03;;;;;;;2.80;1.50;;;;;;;32.28;18.70;96582.69;110309;1243;72082;-69
2023/10/31 11:29:33;;;;;;;2.90;1.40;;;;;;;32.43;18.43;96577.80;110221;1242;69288;-70
2023/10/31 11:32:10;;;;;;;2.50;1.70;;;;;;;32.65;18.19;96572.21;110191;1241;69703;-70
2023/10/31 11:34:41;;;;;;;4.30;1.90;;;;;;;32.55;17.74;96559.85;110314;1243;59692;-69
2023/10/31 11:37:25;;;;;;;2.50;1.40;;;;;;;32.42;18.24;96555.08;110299;1240;59723;-70
2023/10/31 11:40:14;;;;;;;3.40;1.60;;;;;;;32.15;18.31;96546.45;110141;1243;71846;-70
2023/10/31 11:42:50;;;;;;;2.10;1.60;;;;;;;31.63;18.60;96539.18;110267;1240;68354;-71
2023/10/31 11:45:29;;;;;;;4.80;1.80;;;;;;;31.34;18.91;96533.81;110262;1242;69245;-69
2023/10/31 11:48:01;;;;;;;2.40;1.50;;;;;;;31.09;19.09;96518.89;110160;1243;59691;-69
2023/10/31 11:50:31;;;;;;;3.10;1.80;;;;;;;30.46;19.25;96515.56;110240;1244;59759;-71